Time;durP1;ratioP1;P1;durP2;ratioP2;P2;SDS_P1;SDS_P2;PMS_P1;PMS_P2;Temp;Humidity;BMP_temperature;BMP_pressure;BME280_temperature;BME280_humidity;BME280_pressure;Samples;Min_cycle;Max_cycle;Signal;HPM_P1;HPM_P2
2023/01/14 00:02:02;;;;;;;;;;;;;;;;;;5097765;28;20336;-68
2023/01/14 00:04:28;;;;;;;;;;;;;;;;;;5095242;28;19923;-70
2023/01/14 00:06:54;;;;;;;;;;;;;;;;;;5095868;28;20006;-68
2023/01/14 00:09:20;;;;;;;;;;;;;;;;;;5097181;28;19908;-69
2023/01/14 00:11:46;;;;;;;;;;;;;;;;;;5096588;28;19908;-69
2023/01/14 00:14:12;;;;;;;;;;;;;;;;;;5097244;28;20474;-68
2023/01/14 00:16:37;;;;;;;;;;;;;;;;;;5096939;28;19930;-69
2023/01/14 00:19:03;;;;;;;;;;;;;;;;;;5096558;28;20268;-69
2023/01/14 00:21:29;;;;;;;;;;;;;;;;;;5096846;28;19962;-68
2023/01/14 00:23:55;;;;;;;;;;;;;;;;;;5096774;28;19969;-69
2023/01/14 00:26:21;;;;;;;;;;;;;;;;;;5095143;28;19912;-69
2023/01/14 00:28:47;;;;;;;;;;;;;;;;;;5096756;28;19998;-69
2023/01/14 00:31:13;;;;;;;;;;;;;;;;;;5096602;28;19955;-68
2023/01/14 00:33:39;;;;;;;;;;;;;;;;;;5094942;28;19915;-68
2023/01/14 00:36:05;;;;;;;;;;;;;;;;;;5096382;28;20006;-68
2023/01/14 00:38:31;;;;;;;;;;;;;;;;;;5094982;28;20024;-68
2023/01/14 00:40:57;;;;;;;;;;;;;;;;;;5096146;28;20010;-68
2023/01/14 00:43:23;;;;;;;;;;;;;;;;;;5095132;28;19908;-68
2023/01/14 00:45:49;;;;;;;;;;;;;;;;;;5096233;28;19916;-69
2023/01/14 00:48:14;;;;;;;;;;;;;;;;;;5095944;28;19908;-68
2023/01/14 00:50:40;;;;;;;;;;;;;;;;;;5094944;28;19996;-69
2023/01/14 00:53:06;;;;;;;;;;;;;;;;;;5096256;28;19923;-70
2023/01/14 00:55:32;;;;;;;;;;;;;;;;;;5095810;28;19915;-69
2023/01/14 00:57:58;;;;;;;;;;;;;;;;;;5096167;28;19908;-68
2023/01/14 01:00:24;;;;;;;;;;;;;;;;;;5094735;28;19948;-69
2023/01/14 01:02:50;;;;;;;;;;;;;;;;;;5096294;28;19912;-68
2023/01/14 01:05:16;;;;;;;;;;;;;;;;;;5095723;28;19927;-68
2023/01/14 01:07:42;;;;;;;;;;;;;;;;;;5094288;28;19908;-69
2023/01/14 01:10:08;;;;;;;;;;;;;;;;;;5095919;28;19939;-69
2023/01/14 01:12:34;;;;;;;;;;;;;;;;;;5095866;28;20272;-69
2023/01/14 01:15:00;;;;;;;;;;;;;;;;;;5095402;28;20302;-69
2023/01/14 01:17:26;;;;;;;;;;;;;;;;;;5094586;28;20315;-69
2023/01/14 01:19:54;;;;;;;;;;;;;;;;;;5094429;28;20416;-69
2023/01/14 01:22:20;;;;;;;;;;;;;;;;;;5095243;28;19915;-69
2023/01/14 01:24:45;;;;;;;;;;;;;;;;;;5094232;28;19916;-69
2023/01/14 01:27:11;;;;;;;;;;;;;;;;;;5095428;28;19912;-69
2023/01/14 01:29:37;;;;;;;;;;;;;;;;;;5093888;28;20356;-69
2023/01/14 01:32:03;;;;;;;;;;;;;;;;;;5094532;28;20417;-70
2023/01/14 01:34:29;;;;;;;;;;;;;;;;;;5095437;28;20408;-69
2023/01/14 01:36:55;;;;;;;;;;;;;;;;;;5095002;28;20353;-69
2023/01/14 01:39:21;;;;;;;;;;;;;;;;;;5095290;28;19913;-69
2023/01/14 01:41:47;;;;;;;;;;;;;;;;;;5094015;28;19908;-68
2023/01/14 01:44:13;;;;;;;;;;;;;;;;;;5094891;28;20360;-69
2023/01/14 01:46:39;;;;;;;;;;;;;;;;;;5095216;28;20287;-68
2023/01/14 01:49:05;;;;;;;;;;;;;;;;;;5092960;28;20342;-69
2023/01/14 01:51:31;;;;;;;;;;;;;;;;;;5094789;28;19912;-69
2023/01/14 01:53:57;;;;;;;;;;;;;;;;;;5095068;28;19909;-69
2023/01/14 01:56:23;;;;;;;;;;;;;;;;;;5094356;28;19911;-69
2023/01/14 01:58:48;;;;;;;;;;;;;;;;;;5094641;28;19912;-69
2023/01/14 02:01:14;;;;;;;;;;;;;;;;;;5094929;28;19908;-69
2023/01/14 02:03:41;;;;;;;;;;;;;;;;;;5093406;28;19908;-69
2023/01/14 02:06:07;;;;;;;;;;;;;;;;;;5093460;28;19917;-68
2023/01/14 02:08:32;;;;;;;;;;;;;;;;;;5093532;28;19915;-68
2023/01/14 02:10:58;;;;;;;;;;;;;;;;;;5092984;28;19916;-67
2023/01/14 02:13:24;;;;;;;;;;;;;;;;;;5094712;28;19908;-68
2023/01/14 02:15:50;;;;;;;;;;;;;;;;;;5094653;28;19989;-68
2023/01/14 02:18:16;;;;;;;;;;;;;;;;;;5094368;28;20288;-68
2023/01/14 02:20:42;;;;;;;;;;;;;;;;;;5093265;28;20352;-68
2023/01/14 02:23:08;;;;;;;;;;;;;;;;;;5095091;28;20352;-69
2023/01/14 02:25:34;;;;;;;;;;;;;;;;;;5093919;28;20372;-69
2023/01/14 02:28:00;;;;;;;;;;;;;;;;;;5093436;28;19916;-69
2023/01/14 02:30:26;;;;;;;;;;;;;;;;;;5094523;28;20376;-69
2023/01/14 02:32:52;;;;;;;;;;;;;;;;;;5093985;28;19927;-69
2023/01/14 02:35:18;;;;;;;;;;;;;;;;;;5093089;28;20310;-69
2023/01/14 02:37:44;;;;;;;;;;;;;;;;;;5093020;28;20419;-68
2023/01/14 02:40:10;;;;;;;;;;;;;;;;;;5092625;28;20383;-69
2023/01/14 02:45:20;;;;;;;;;;;;;;;;;;5094167;28;19961;-68
2023/01/14 02:47:46;;;;;;;;;;;;;;;;;;5092440;28;19908;-69
2023/01/14 02:50:12;;;;;;;;;;;;;;;;;;5094108;28;19995;-68
2023/01/14 02:52:38;;;;;;;;;;;;;;;;;;5092812;28;19919;-68
2023/01/14 02:55:05;;;;;;;;;;;;;;;;;;5092381;28;19931;-69
2023/01/14 02:57:31;;;;;;;;;;;;;;;;;;5094046;28;20074;-69
2023/01/14 02:59:57;;;;;;;;;;;;;;;;;;5093842;28;19915;-69
2023/01/14 03:02:23;;;;;;;;;;;;;;;;;;5093560;28;20010;-69
2023/01/14 03:04:49;;;;;;;;;;;;;;;;;;5093655;28;19932;-69
2023/01/14 03:07:15;;;;;;;;;;;;;;;;;;5093567;28;19908;-68
2023/01/14 03:09:41;;;;;;;;;;;;;;;;;;5092996;28;20360;-68
2023/01/14 03:12:07;;;;;;;;;;;;;;;;;;5093844;28;19908;-69
2023/01/14 03:14:33;;;;;;;;;;;;;;;;;;5093448;28;19954;-69
2023/01/14 03:16:59;;;;;;;;;;;;;;;;;;5093854;28;19915;-69
2023/01/14 03:19:24;;;;;;;;;;;;;;;;;;5093810;28;19915;-69
2023/01/14 03:21:50;;;;;;;;;;;;;;;;;;5093425;28;19908;-69
2023/01/14 03:24:16;;;;;;;;;;;;;;;;;;5092376;28;19913;-67
2023/01/14 03:26:42;;;;;;;;;;;;;;;;;;5092377;28;19913;-68
2023/01/14 03:29:08;;;;;;;;;;;;;;;;;;5092136;28;19909;-68
2023/01/14 03:31:34;;;;;;;;;;;;;;;;;;5093721;28;19995;-69
2023/01/14 03:34:00;;;;;;;;;;;;;;;;;;5093699;28;20280;-69
2023/01/14 03:36:26;;;;;;;;;;;;;;;;;;5093231;28;19995;-68
2023/01/14 03:38:52;;;;;;;;;;;;;;;;;;5093624;28;19912;-68
2023/01/14 03:42:17;;;;;;;;;;;;;;;;;;5093611;28;19908;-68
2023/01/14 03:44:04;;;;;;;;;;;;;;;;;;5092995;28;20249;-68
2023/01/14 03:46:30;;;;;;;;;;;;;;;;;;5093553;28;19912;-69
2023/01/14 03:48:56;;;;;;;;;;;;;;;;;;5092251;28;19909;-69
2023/01/14 03:51:22;;;;;;;;;;;;;;;;;;5093112;28;20404;-69
2023/01/14 03:53:47;;;;;;;;;;;;;;;;;;5093774;28;20414;-69
2023/01/14 03:56:13;;;;;;;;;;;;;;;;;;5093511;28;19961;-69
2023/01/14 03:58:39;;;;;;;;;;;;;;;;;;5093864;28;19909;-69
2023/01/14 04:01:05;;;;;;;;;;;;;;;;;;5093431;28;20003;-69
2023/01/14 04:03:31;;;;;;;;;;;;;;;;;;5091544;28;19913;-68
2023/01/14 04:05:57;;;;;;;;;;;;;;;;;;5093592;28;19916;-68
2023/01/14 04:08:23;;;;;;;;;;;;;;;;;;5093374;28;19912;-68
2023/01/14 04:10:49;;;;;;;;;;;;;;;;;;5093053;28;20272;-68
2023/01/14 04:16:00;;;;;;;;;;;;;;;;;;5097036;28;19961;-68
2023/01/14 04:18:26;;;;;;;;;;;;;;;;;;5095307;28;19908;-68
2023/01/14 04:20:52;;;;;;;;;;;;;;;;;;5095591;28;19919;-69
2023/01/14 04:23:18;;;;;;;;;;;;;;;;;;5097123;28;19961;-69
2023/01/14 04:25:44;;;;;;;;;;;;;;;;;;5096378;28;20388;-69
2023/01/14 04:28:09;;;;;;;;;;;;;;;;;;5095459;28;19915;-69
2023/01/14 04:30:35;;;;;;;;;;;;;;;;;;5095437;28;19909;-69
2023/01/14 04:33:01;;;;;;;;;;;;;;;;;;5095017;28;19944;-69
2023/01/14 04:35:27;;;;;;;;;;;;;;;;;;5096659;28;20391;-68
2023/01/14 04:37:54;;;;;;;;;;;;;;;;;;5095361;28;20411;-68
2023/01/14 04:40:20;;;;;;;;;;;;;;;;;;5096219;28;19914;-69
2023/01/14 04:42:46;;;;;;;;;;;;;;;;;;5096517;28;19998;-69
2023/01/14 04:45:12;;;;;;;;;;;;;;;;;;5096354;28;19920;-69
2023/01/14 04:47:38;;;;;;;;;;;;;;;;;;5096005;28;20398;-69
2023/01/14 04:50:30;;;;;;;;;;;;;;;;;;5096421;28;20003;-69
2023/01/14 04:52:50;;;;;;;;;;;;;;;;;;5095723;28;19912;-69
2023/01/14 04:55:16;;;;;;;;;;;;;;;;;;5096254;28;19954;-68
2023/01/14 04:57:42;;;;;;;;;;;;;;;;;;5096593;28;19911;-68
2023/01/14 05:00:08;;;;;;;;;;;;;;;;;;5095756;28;19908;-69
2023/01/14 05:02:34;;;;;;;;;;;;;;;;;;5096706;28;20313;-69
2023/01/14 05:05:00;;;;;;;;;;;;;;;;;;5096055;28;20295;-69
2023/01/14 05:07:25;;;;;;;;;;;;;;;;;;5095637;28;20295;-68
2023/01/14 05:09:51;;;;;;;;;;;;;;;;;;5096085;28;19912;-70
2023/01/14 05:12:17;;;;;;;;;;;;;;;;;;5094691;28;19909;-69
2023/01/14 05:14:43;;;;;;;;;;;;;;;;;;5095473;28;19915;-70
2023/01/14 05:17:09;;;;;;;;;;;;;;;;;;5094645;28;19931;-69
2023/01/14 05:19:35;;;;;;;;;;;;;;;;;;5095801;28;20276;-71
2023/01/14 05:22:01;;;;;;;;;;;;;;;;;;5095371;28;20325;-70
2023/01/14 05:24:27;;;;;;;;;;;;;;;;;;5095698;28;19934;-68
2023/01/14 05:26:53;;;;;;;;;;;;;;;;;;5094330;28;19912;-69
2023/01/14 05:29:19;;;;;;;;;;;;;;;;;;5095304;28;19912;-69
2023/01/14 05:31:46;;;;;;;;;;;;;;;;;;5095570;28;19909;-68
2023/01/14 05:34:12;;;;;;;;;;;;;;;;;;5095551;28;19912;-69
2023/01/14 05:36:38;;;;;;;;;;;;;;;;;;5095033;28;19965;-69
2023/01/14 05:39:04;;;;;;;;;;;;;;;;;;5094137;28;19909;-69
2023/01/14 05:41:30;;;;;;;;;;;;;;;;;;5095305;28;19915;-68
2023/01/14 05:46:40;;;;;;;;;;;;;;;;;;5095257;28;19927;-68
2023/01/14 05:49:06;;;;;;;;;;;;;;;;;;5094818;28;20406;-69
2023/01/14 05:51:32;;;;;;;;;;;;;;;;;;5095142;28;19908;-68
2023/01/14 05:53:58;;;;;;;;;;;;;;;;;;5095106;28;19908;-69
2023/01/14 05:56:24;;;;;;;;;;;;;;;;;;5094700;28;19912;-69
2023/01/14 05:58:51;;;;;;;;;;;;;;;;;;5095046;28;19908;-69
2023/01/14 06:06:50;;;;;;;;;;;;;;;;;;5095020;28;20326;-68
2023/01/14 06:09:16;;;;;;;;;;;;;;;;;;5093642;28;19978;-69
2023/01/14 06:11:45;;;;;;;;;;;;;;;;;;5093104;28;19916;-68
2023/01/14 06:14:11;;;;;;;;;;;;;;;;;;5093405;28;20256;-68
2023/01/14 06:16:40;;;;;;;;;;;;;;;;;;5093506;28;19915;-69
2023/01/14 06:19:06;;;;;;;;;;;;;;;;;;5093083;28;19908;-68
2023/01/14 06:21:32;;;;;;;;;;;;;;;;;;5093304;28;19908;-68
2023/01/14 06:23:58;;;;;;;;;;;;;;;;;;5094144;28;19908;-68
2023/01/14 06:26:27;;;;;;;;;;;;;;;;;;5094624;28;19912;-69
2023/01/14 06:28:53;;;;;;;;;;;;;;;;;;5094545;28;19908;-68
2023/01/14 06:31:19;;;;;;;;;;;;;;;;;;5092751;28;20085;-69
2023/01/14 06:33:45;;;;;;;;;;;;;;;;;;5094441;28;19915;-69
2023/01/14 06:36:11;;;;;;;;;;;;;;;;;;5094300;28;19919;-69
2023/01/14 06:38:37;;;;;;;;;;;;;;;;;;5094257;28;19908;-69
2023/01/14 06:41:03;;;;;;;;;;;;;;;;;;5094349;28;19908;-69
2023/01/14 06:43:29;;;;;;;;;;;;;;;;;;5094281;28;20340;-69
2023/01/14 06:45:55;;;;;;;;;;;;;;;;;;5092592;28;20368;-69
2023/01/14 06:48:21;;;;;;;;;;;;;;;;;;5092983;28;20329;-68
2023/01/14 06:50:47;;;;;;;;;;;;;;;;;;5092867;28;19908;-68
2023/01/14 06:53:12;;;;;;;;;;;;;;;;;;5092511;28;19954;-69
2023/01/14 06:55:38;;;;;;;;;;;;;;;;;;5092823;28;20012;-69
2023/01/14 06:58:04;;;;;;;;;;;;;;;;;;5092802;28;19908;-69
2023/01/14 07:00:30;;;;;;;;;;;;;;;;;;5093603;28;19908;-68
2023/01/14 07:02:56;;;;;;;;;;;;;;;;;;5094058;28;19908;-68
2023/01/14 07:05:22;;;;;;;;;;;;;;;;;;5093710;28;19951;-68
2023/01/14 07:07:48;;;;;;;;;;;;;;;;;;5093551;28;20424;-68
2023/01/14 07:10:14;;;;;;;;;;;;;;;;;;5094264;28;20249;-69
2023/01/14 07:12:40;;;;;;;;;;;;;;;;;;5092686;28;20391;-68
2023/01/14 07:15:06;;;;;;;;;;;;;;;;;;5093505;28;20275;-69
2023/01/14 07:17:32;;;;;;;;;;;;;;;;;;5092720;28;20276;-69
2023/01/14 07:19:58;;;;;;;;;;;;;;;;;;5092615;28;19912;-69
2023/01/14 07:22:24;;;;;;;;;;;;;;;;;;5093440;28;20313;-69
2023/01/14 07:24:50;;;;;;;;;;;;;;;;;;5093748;28;20017;-69
2023/01/14 07:27:16;;;;;;;;;;;;;;;;;;5093368;28;19908;-69
2023/01/14 07:29:42;;;;;;;;;;;;;;;;;;5092547;28;19912;-69
2023/01/14 07:32:08;;;;;;;;;;;;;;;;;;5093806;28;19953;-69
2023/01/14 07:34:34;;;;;;;;;;;;;;;;;;5093260;28;19953;-69
2023/01/14 07:37:00;;;;;;;;;;;;;;;;;;5093760;28;19912;-69
2023/01/14 07:39:25;;;;;;;;;;;;;;;;;;5093673;28;19909;-69
2023/01/14 07:41:51;;;;;;;;;;;;;;;;;;5092023;28;19912;-69
2023/01/14 07:44:23;;;;;;;;;;;;;;;;;;5092276;28;19920;-68
2023/01/14 07:46:49;;;;;;;;;;;;;;;;;;5093298;28;19908;-68
2023/01/14 07:49:15;;;;;;;;;;;;;;;;;;5095858;28;19915;-68
2023/01/14 07:51:41;;;;;;;;;;;;;;;;;;5097575;28;19958;-68
2023/01/14 07:54:07;;;;;;;;;;;;;;;;;;5097507;28;19912;-69
2023/01/14 07:56:33;;;;;;;;;;;;;;;;;;5097027;28;19908;-69
2023/01/14 07:58:59;;;;;;;;;;;;;;;;;;5097335;28;19908;-69
2023/01/14 08:01:25;;;;;;;;;;;;;;;;;;5096091;28;19918;-69
2023/01/14 08:03:50;;;;;;;;;;;;;;;;;;5096804;28;19934;-69
2023/01/14 08:06:16;;;;;;;;;;;;;;;;;;5097590;28;19916;-69
2023/01/14 08:08:42;;;;;;;;;;;;;;;;;;5096055;28;19908;-69
2023/01/14 08:11:08;;;;;;;;;;;;;;;;;;5096755;28;19908;-68
2023/01/14 08:13:35;;;;;;;;;;;;;;;;;;5097057;28;19931;-69
2023/01/14 08:16:01;;;;;;;;;;;;;;;;;;5097040;28;20378;-68
2023/01/14 08:18:29;;;;;;;;;;;;;;;;;;5096589;28;19962;-68
2023/01/14 08:20:55;;;;;;;;;;;;;;;;;;5097039;28;19908;-68
2023/01/14 08:23:21;;;;;;;;;;;;;;;;;;5096948;28;20388;-68
2023/01/14 08:25:47;;;;;;;;;;;;;;;;;;5096367;28;19916;-69
2023/01/14 08:28:13;;;;;;;;;;;;;;;;;;5097024;28;19915;-69
2023/01/14 08:30:39;;;;;;;;;;;;;;;;;;5095079;28;19956;-69
2023/01/14 08:33:05;;;;;;;;;;;;;;;;;;5097058;28;19908;-69
2023/01/14 08:35:30;;;;;;;;;;;;;;;;;;5096689;28;19912;-68
2023/01/14 08:37:56;;;;;;;;;;;;;;;;;;5096383;28;19907;-68
2023/01/14 08:40:23;;;;;;;;;;;;;;;;;;5096916;28;20249;-69
2023/01/14 08:42:49;;;;;;;;;;;;;;;;;;5095311;28;20346;-69
2023/01/14 08:45:15;;;;;;;;;;;;;;;;;;5096207;28;20019;-69
2023/01/14 08:47:41;;;;;;;;;;;;;;;;;;5095203;28;19914;-68
2023/01/14 08:50:07;;;;;;;;;;;;;;;;;;5096527;28;19908;-68
2023/01/14 08:52:32;;;;;;;;;;;;;;;;;;5094781;28;19958;-69
2023/01/14 08:54:58;;;;;;;;;;;;;;;;;;5095255;28;20272;-69
2023/01/14 08:57:24;;;;;;;;;;;;;;;;;;5095935;28;20280;-69
2023/01/14 08:59:50;;;;;;;;;;;;;;;;;;5095924;28;19912;-69
2023/01/14 09:02:16;;;;;;;;;;;;;;;;;;5096111;28;19909;-68
2023/01/14 09:04:42;;;;;;;;;;;;;;;;;;5095837;28;19920;-68
2023/01/14 09:18:06;;;;;;;;;;;;;;;;;;5096172;28;19915;-69
2023/01/14 09:20:32;;;;;;;;;;;;;;;;;;5094239;28;19908;-69
2023/01/14 09:22:58;;;;;;;;;;;;;;;;;;5095782;28;19908;-69
2023/01/14 09:25:24;;;;;;;;;;;;;;;;;;5094379;28;19916;-68
2023/01/14 09:27:50;;;;;;;;;;;;;;;;;;5095336;28;20345;-70
2023/01/14 09:30:16;;;;;;;;;;;;;;;;;;5095939;28;20358;-68
2023/01/14 09:32:42;;;;;;;;;;;;;;;;;;5094309;28;19947;-68
2023/01/14 09:35:08;;;;;;;;;;;;;;;;;;5095141;28;19915;-68
2023/01/14 09:37:34;;;;;;;;;;;;;;;;;;5095663;28;19908;-68
2023/01/14 09:40:00;;;;;;;;;;;;;;;;;;5094193;28;19908;-69
2023/01/14 09:42:26;;;;;;;;;;;;;;;;;;5094969;28;19908;-68
2023/01/14 09:44:52;;;;;;;;;;;;;;;;;;5095529;28;19920;-68
2023/01/14 09:47:18;;;;;;;;;;;;;;;;;;5093932;28;19908;-69
2023/01/14 09:49:44;;;;;;;;;;;;;;;;;;5094818;28;20007;-68
2023/01/14 09:52:10;;;;;;;;;;;;;;;;;;5095404;28;19915;-68
2023/01/14 09:54:36;;;;;;;;;;;;;;;;;;5095460;28;19912;-69
2023/01/14 09:57:02;;;;;;;;;;;;;;;;;;5094797;28;19951;-70
2023/01/14 09:59:28;;;;;;;;;;;;;;;;;;5095007;28;19915;-69
2023/01/14 10:01:54;;;;;;;;;;;;;;;;;;5095025;28;19915;-69
2023/01/14 10:04:19;;;;;;;;;;;;;;;;;;5094317;28;19920;-68
2023/01/14 10:06:45;;;;;;;;;;;;;;;;;;5093665;28;20334;-69
2023/01/14 10:09:11;;;;;;;;;;;;;;;;;;5092673;28;20322;-69
2023/01/14 10:11:37;;;;;;;;;;;;;;;;;;5094974;28;20292;-70
2023/01/14 10:14:03;;;;;;;;;;;;;;;;;;5094929;28;19914;-70
2023/01/14 10:16:29;;;;;;;;;;;;;;;;;;5094484;28;20355;-70
2023/01/14 10:18:55;;;;;;;;;;;;;;;;;;5095063;28;20261;-68
2023/01/14 10:21:21;;;;;;;;;;;;;;;;;;5094670;28;20283;-68
2023/01/14 10:23:47;;;;;;;;;;;;;;;;;;5092993;28;19915;-69
2023/01/14 10:26:13;;;;;;;;;;;;;;;;;;5093173;28;19916;-69
2023/01/14 10:28:39;;;;;;;;;;;;;;;;;;5094557;28;19909;-68
2023/01/14 10:31:05;;;;;;;;;;;;;;;;;;5094028;28;19912;-70
2023/01/14 10:33:31;;;;;;;;;;;;;;;;;;5094498;28;19912;-68
2023/01/14 10:35:57;;;;;;;;;;;;;;;;;;5094419;28;19930;-68
2023/01/14 10:38:23;;;;;;;;;;;;;;;;;;5094006;28;20012;-69
2023/01/14 10:40:49;;;;;;;;;;;;;;;;;;5094358;28;19915;-68
2023/01/14 10:43:15;;;;;;;;;;;;;;;;;;5093052;28;19962;-69
2023/01/14 10:45:41;;;;;;;;;;;;;;;;;;5093773;28;19916;-69
2023/01/14 10:48:07;;;;;;;;;;;;;;;;;;5094276;28;19908;-69
2023/01/14 10:50:33;;;;;;;;;;;;;;;;;;5094280;28;19908;-69
2023/01/14 10:52:59;;;;;;;;;;;;;;;;;;5093797;28;19908;-70
2023/01/14 10:55:25;;;;;;;;;;;;;;;;;;5094192;28;19908;-67
2023/01/14 10:57:51;;;;;;;;;;;;;;;;;;5092814;28;19908;-70
2023/01/14 11:00:16;;;;;;;;;;;;;;;;;;5093617;28;19908;-69
2023/01/14 11:02:42;;;;;;;;;;;;;;;;;;5092741;28;20411;-69
2023/01/14 11:05:08;;;;;;;;;;;;;;;;;;5092474;28;20380;-68
2023/01/14 11:07:34;;;;;;;;;;;;;;;;;;5092289;28;20379;-68
2023/01/14 11:10:00;;;;;;;;;;;;;;;;;;5092741;28;19915;-68
2023/01/14 11:12:27;;;;;;;;;;;;;;;;;;5093561;28;20358;-69
2023/01/14 11:14:53;;;;;;;;;;;;;;;;;;5093919;28;19997;-68
2023/01/14 11:17:19;;;;;;;;;;;;;;;;;;5093895;28;19966;-68
2023/01/14 11:19:45;;;;;;;;;;;;;;;;;;5092104;28;19912;-68
2023/01/14 11:22:11;;;;;;;;;;;;;;;;;;5095828;28;19912;-69
2023/01/14 11:24:38;;;;;;;;;;;;;;;;;;5096809;28;19939;-70
2023/01/14 11:27:04;;;;;;;;;;;;;;;;;;5096236;28;19908;-70
2023/01/14 11:29:30;;;;;;;;;;;;;;;;;;5098089;28;20001;-69
2023/01/14 11:31:56;;;;;;;;;;;;;;;;;;5096671;28;20364;-69
2023/01/14 11:34:22;;;;;;;;;;;;;;;;;;5097452;28;19912;-69
2023/01/14 11:36:48;;;;;;;;;;;;;;;;;;5097823;28;19908;-68
2023/01/14 11:39:14;;;;;;;;;;;;;;;;;;5096587;28;19955;-69
2023/01/14 11:41:40;;;;;;;;;;;;;;;;;;5097385;28;19908;-69
2023/01/14 11:44:06;;;;;;;;;;;;;;;;;;5097653;28;19962;-69
2023/01/14 11:46:34;;;;;;;;;;;;;;;;;;5097721;28;20015;-69
2023/01/14 11:49:00;;;;;;;;;;;;;;;;;;5097275;28;19916;-70
2023/01/14 11:51:27;;;;;;;;;;;;;;;;;;5096331;28;19912;-69
2023/01/14 11:53:53;;;;;;;;;;;;;;;;;;5097564;28;20283;-70
2023/01/14 11:56:19;;;;;;;;;;;;;;;;;;5097106;28;19916;-70
2023/01/14 11:58:45;;;;;;;;;;;;;;;;;;5097442;28;19908;-69
2023/01/14 12:01:11;;;;;;;;;;;;;;;;;;5097418;28;20004;-69
2023/01/14 12:03:37;;;;;;;;;;;;;;;;;;5096780;28;19908;-68
2023/01/14 12:06:03;;;;;;;;;;;;;;;;;;5097244;28;20062;-68
2023/01/14 12:08:29;;;;;;;;;;;;;;;;;;5097258;28;19909;-68
2023/01/14 12:10:59;;;;;;;;;;;;;;;;;;5096766;28;19917;-68
2023/01/14 12:18:54;;;;;;;;;;;;;;;;;;5097242;28;19915;-68
2023/01/14 12:21:20;;;;;;;;;;;;;;;;;;5095698;28;19908;-69
2023/01/14 12:23:46;;;;;;;;;;;;;;;;;;5096701;28;19908;-69
2023/01/14 12:26:12;;;;;;;;;;;;;;;;;;5095471;28;19927;-68
2023/01/14 12:28:38;;;;;;;;;;;;;;;;;;5097320;28;19966;-69
2023/01/14 12:31:03;;;;;;;;;;;;;;;;;;5096537;28;20371;-68
2023/01/14 12:33:30;;;;;;;;;;;;;;;;;;5096005;28;20348;-69
2023/01/14 12:35:56;;;;;;;;;;;;;;;;;;5095414;28;19908;-69
2023/01/14 12:46:35;;;;;;;;;;;;;;;;;;5096483;28;20294;-69
2023/01/14 12:49:01;;;;;;;;;;;;;;;;;;5096667;28;19912;-71
2023/01/14 12:51:27;;;;;;;;;;;;;;;;;;5096078;28;19951;-69
2023/01/14 12:53:53;;;;;;;;;;;;;;;;;;5096464;28;20368;-70
2023/01/14 12:56:19;;;;;;;;;;;;;;;;;;5094990;28;20102;-69
2023/01/14 12:58:45;;;;;;;;;;;;;;;;;;5095997;28;19908;-69
2023/01/14 13:01:12;;;;;;;;;;;;;;;;;;5096493;28;20364;-69
2023/01/14 13:03:38;;;;;;;;;;;;;;;;;;5096067;28;20404;-68
2023/01/14 13:06:04;;;;;;;;;;;;;;;;;;5094412;28;20018;-68
2023/01/14 13:08:30;;;;;;;;;;;;;;;;;;5096070;28;19912;-69
2023/01/14 13:10:56;;;;;;;;;;;;;;;;;;5095972;28;19951;-68
2023/01/14 13:13:22;;;;;;;;;;;;;;;;;;5095599;28;19916;-69
2023/01/14 13:15:48;;;;;;;;;;;;;;;;;;5095970;28;19908;-68
2023/01/14 13:18:14;;;;;;;;;;;;;;;;;;5094612;28;19960;-69
2023/01/14 13:20:40;;;;;;;;;;;;;;;;;;5095420;28;19961;-71
2023/01/14 13:23:08;;;;;;;;;;;;;;;;;;5094561;28;19908;-72
2023/01/14 13:25:34;;;;;;;;;;;;;;;;;;5095691;28;20441;-71
2023/01/14 13:28:00;;;;;;;;;;;;;;;;;;5094083;28;19947;-74
2023/01/14 13:30:26;;;;;;;;;;;;;;;;;;5095714;28;19947;-69
2023/01/14 13:32:52;;;;;;;;;;;;;;;;;;5095596;28;20279;-70
2023/01/14 13:35:18;;;;;;;;;;;;;;;;;;5095210;28;19915;-70
2023/01/14 13:37:44;;;;;;;;;;;;;;;;;;5095574;28;19908;-69
2023/01/14 13:40:10;;;;;;;;;;;;;;;;;;5095075;28;19915;-69
2023/01/14 13:42:38;;;;;;;;;;;;;;;;;;5095466;28;19930;-72
2023/01/14 13:45:04;;;;;;;;;;;;;;;;;;5094264;28;19912;-71
2023/01/14 13:47:30;;;;;;;;;;;;;;;;;;5094965;28;19966;-69
2023/01/14 13:49:56;;;;;;;;;;;;;;;;;;5095334;28;19908;-70
2023/01/14 13:52:23;;;;;;;;;;;;;;;;;;5095288;28;19950;-69
2023/01/14 13:54:49;;;;;;;;;;;;;;;;;;5094880;28;19908;-70
2023/01/14 13:57:14;;;;;;;;;;;;;;;;;;5095189;28;20379;-71
2023/01/14 13:59:40;;;;;;;;;;;;;;;;;;5095365;28;19915;-70
2023/01/14 14:02:06;;;;;;;;;;;;;;;;;;5093394;28;19908;-69
2023/01/14 14:04:32;;;;;;;;;;;;;;;;;;5094788;28;19924;-68
2023/01/14 14:06:58;;;;;;;;;;;;;;;;;;5094034;28;20267;-69
2023/01/14 14:09:31;;;;;;;;;;;;;;;;;;5094613;28;20321;-69
2023/01/14 14:11:57;;;;;;;;;;;;;;;;;;5094824;28;19961;-69
2023/01/14 14:14:23;;;;;;;;;;;;;;;;;;5094937;28;19912;-70
2023/01/14 14:16:49;;;;;;;;;;;;;;;;;;5094421;28;19908;-70
2023/01/14 14:19:15;;;;;;;;;;;;;;;;;;5094726;28;19999;-69
2023/01/14 14:21:40;;;;;;;;;;;;;;;;;;5094781;28;19908;-70
2023/01/14 14:24:06;;;;;;;;;;;;;;;;;;5094284;28;19908;-69
2023/01/14 14:26:32;;;;;;;;;;;;;;;;;;5094585;28;19916;-72
2023/01/14 14:28:58;;;;;;;;;;;;;;;;;;5094590;28;19931;-70
2023/01/14 14:31:25;;;;;;;;;;;;;;;;;;5094127;28;19923;-70
2023/01/14 14:33:51;;;;;;;;;;;;;;;;;;5094556;28;19912;-68
2023/01/14 14:36:17;;;;;;;;;;;;;;;;;;5094016;28;19915;-70
2023/01/14 14:38:43;;;;;;;;;;;;;;;;;;5094458;28;19912;-71
2023/01/14 14:41:09;;;;;;;;;;;;;;;;;;5094367;28;19923;-70
2023/01/14 14:43:35;;;;;;;;;;;;;;;;;;5093963;28;19915;-70
2023/01/14 14:46:01;;;;;;;;;;;;;;;;;;5094218;28;20014;-69
2023/01/14 14:48:27;;;;;;;;;;;;;;;;;;5094185;28;19909;-69
2023/01/14 14:50:53;;;;;;;;;;;;;;;;;;5093972;28;19908;-68
2023/01/14 14:53:19;;;;;;;;;;;;;;;;;;5094460;28;19909;-69
2023/01/14 14:55:45;;;;;;;;;;;;;;;;;;5093822;28;19908;-69
2023/01/14 14:58:11;;;;;;;;;;;;;;;;;;5093838;28;19946;-69
2023/01/14 15:00:37;;;;;;;;;;;;;;;;;;5094107;28;20353;-69
2023/01/14 15:03:03;;;;;;;;;;;;;;;;;;5093069;28;20013;-69
2023/01/14 15:05:29;;;;;;;;;;;;;;;;;;5093445;28;19924;-69
2023/01/14 15:07:57;;;;;;;;;;;;;;;;;;5092103;28;20205;-68
2023/01/14 15:10:23;;;;;;;;;;;;;;;;;;5094012;28;19959;-68
2023/01/14 15:12:49;;;;;;;;;;;;;;;;;;5093590;28;19928;-68
2023/01/14 15:15:15;;;;;;;;;;;;;;;;;;5092715;28;19908;-69
2023/01/14 15:17:41;;;;;;;;;;;;;;;;;;5093956;28;19911;-69
2023/01/14 15:20:07;;;;;;;;;;;;;;;;;;5093607;28;19954;-68
2023/01/14 15:22:32;;;;;;;;;;;;;;;;;;5092586;28;19904;-69
2023/01/14 15:24:58;;;;;;;;;;;;;;;;;;5092539;28;20002;-69
2023/01/14 15:27:29;;;;;;;;;;;;;;;;;;5093493;28;19913;-68
2023/01/14 15:29:54;;;;;;;;;;;;;;;;;;5092820;28;19978;-69
2023/01/14 15:32:20;;;;;;;;;;;;;;;;;;5093979;28;20344;-69
2023/01/14 15:34:48;;;;;;;;;;;;;;;;;;5092207;28;19908;-69
2023/01/14 15:37:14;;;;;;;;;;;;;;;;;;5092463;28;20276;-69
2023/01/14 15:39:40;;;;;;;;;;;;;;;;;;5093327;28;19915;-70
2023/01/14 15:42:06;;;;;;;;;;;;;;;;;;5092522;28;19916;-69
2023/01/14 15:44:32;;;;;;;;;;;;;;;;;;5093560;28;20318;-68
2023/01/14 15:46:58;;;;;;;;;;;;;;;;;;5093307;28;20004;-68
2023/01/14 15:49:24;;;;;;;;;;;;;;;;;;5092421;28;19908;-68
2023/01/14 15:51:50;;;;;;;;;;;;;;;;;;5093651;28;19947;-69
2023/01/14 15:54:16;;;;;;;;;;;;;;;;;;5091927;28;20284;-68
2023/01/14 15:56:42;;;;;;;;;;;;;;;;;;5093863;28;20310;-70
2023/01/14 15:59:08;;;;;;;;;;;;;;;;;;5093560;28;19908;-69
2023/01/14 16:01:34;;;;;;;;;;;;;;;;;;5093175;28;19912;-70
2023/01/14 16:04:00;;;;;;;;;;;;;;;;;;5093317;28;20007;-69
2023/01/14 16:06:26;;;;;;;;;;;;;;;;;;5092176;28;19916;-69
2023/01/14 16:08:52;;;;;;;;;;;;;;;;;;5095591;28;20356;-69
2023/01/14 16:11:18;;;;;;;;;;;;;;;;;;5096246;28;19908;-69
2023/01/14 16:13:43;;;;;;;;;;;;;;;;;;5097267;28;19910;-69
2023/01/14 16:16:09;;;;;;;;;;;;;;;;;;5095445;28;19985;-68
2023/01/14 16:18:35;;;;;;;;;;;;;;;;;;5097150;28;19915;-69
2023/01/14 16:21:04;;;;;;;;;;;;;;;;;;5097153;28;20081;-68
2023/01/14 16:23:30;;;;;;;;;;;;;;;;;;5096586;28;19908;-69
2023/01/14 16:25:57;;;;;;;;;;;;;;;;;;5095673;28;19966;-69
2023/01/14 16:28:23;;;;;;;;;;;;;;;;;;5097016;28;19912;-69
2023/01/14 16:30:49;;;;;;;;;;;;;;;;;;5096536;28;19916;-69
2023/01/14 16:33:15;;;;;;;;;;;;;;;;;;5096844;28;19908;-69
2023/01/14 16:35:41;;;;;;;;;;;;;;;;;;5096724;28;19952;-69
2023/01/14 16:38:07;;;;;;;;;;;;;;;;;;5096335;28;19908;-69
2023/01/14 16:40:33;;;;;;;;;;;;;;;;;;5096800;28;19916;-69
2023/01/14 16:42:59;;;;;;;;;;;;;;;;;;5096219;28;19908;-68
2023/01/14 16:45:24;;;;;;;;;;;;;;;;;;5096617;28;20364;-69
2023/01/14 16:47:50;;;;;;;;;;;;;;;;;;5095254;28;19991;-68
2023/01/14 16:50:16;;;;;;;;;;;;;;;;;;5094854;28;19908;-68
2023/01/14 16:52:42;;;;;;;;;;;;;;;;;;5095111;28;19912;-68
2023/01/14 16:55:08;;;;;;;;;;;;;;;;;;5096654;28;19909;-69
2023/01/14 16:57:34;;;;;;;;;;;;;;;;;;5094678;28;19914;-70
2023/01/14 17:00:00;;;;;;;;;;;;;;;;;;5096377;28;19916;-70
2023/01/14 17:02:26;;;;;;;;;;;;;;;;;;5096414;28;19962;-70
2023/01/14 17:04:52;;;;;;;;;;;;;;;;;;5095721;28;19942;-68
2023/01/14 17:07:18;;;;;;;;;;;;;;;;;;5096069;28;19977;-69
2023/01/14 17:09:44;;;;;;;;;;;;;;;;;;5096115;28;19916;-69
2023/01/14 17:14:54;;;;;;;;;;;;;;;;;;5096031;28;20406;-69
2023/01/14 17:17:20;;;;;;;;;;;;;;;;;;5095908;28;19908;-69
2023/01/14 17:19:46;;;;;;;;;;;;;;;;;;5095385;28;19959;-69